Talmo, Georgia
Current Conditions -  °F | °C
As of 3:53 PM on Friday 28 Nov 2014 (Local Time) from KGVL Reporting Station
Clear Clear  
Wind Chill: 45°   Ceiling: Unl
Heat Index: 47°   Visibility: 10mi
Dew Point: 15°   Wind: 5mph
Humidity: 28%   Direction: 210°SSW
Pressure: 30.27"   Gusts: NA
Location:  34.19°N, 83.72°W
Report Text: KGVL 282053Z AUTO 21004KT 10SM CLR 08/M09 A3027 RMK AO2 SLP255 T00831094 56018
Loading
Personal Weather Stations






























Interactive Weather Map New forecast layout! Learn more

10-Day Weather Forecast

Advertisements
Track Severe Weather on mobile